Terminal Aerodrome Forecast
Issued by NWS

Home | Current Version | Previous Version | Text Only | Print | Product List | Glossary On
Versions: 1 2 3 4 5 6 7 8 9 10 11 12 13 14 15 16 17 18
000
FTUS44 KEPZ 302339
TAFTCS
TAF
KTCS 302339Z 3100/3124 12009KT P6SM FEW045 BKN060 BKN100
      TEMPO 3108/3112 4SM -RA BR SCT020 OVC030
     FM311200 02010KT 5SM -SHRA FEW025 OVC040
     FM311800 07011G18KT 6SM -SHRA BKN040 OVC080
     FM312100 04010KT P6SM VCSH SCT040 BKN080 OVC120=

USA.gov is the U.S. government's official web portal to all federal, state and local government web resources and services.